sensor_id;sensor_type;location;lat;lon;timestamp;pressure;altitude;pressure_sealevel;temperature;humidity
35226;BME280;21813;49.686;21.766;2022-12-18T00:00:58;99659.03;;;-4.79;100.00
35226;BME280;21813;49.686;21.766;2022-12-18T00:03:41;99664.09;;;-4.79;100.00
35226;BME280;21813;49.686;21.766;2022-12-18T00:06:06;99669.19;;;-4.82;100.00
35226;BME280;21813;49.686;21.766;2022-12-18T00:08:34;99671.75;;;-4.81;100.00
35226;BME280;21813;49.686;21.766;2022-12-18T00:11:04;99682.75;;;-4.79;100.00
35226;BME280;21813;49.686;21.766;2022-12-18T00:13:31;99688.69;;;-4.78;100.00
35226;BME280;21813;49.686;21.766;2022-12-18T00:16:02;99687.00;;;-4.78;100.00
35226;BME280;21813;49.686;21.766;2022-12-18T00:18:28;99684.47;;;-4.76;100.00
35226;BME280;21813;49.686;21.766;2022-12-18T00:20:58;99689.56;;;-4.76;100.00
35226;BME280;21813;49.686;21.766;2022-12-18T00:23:25;99700.56;;;-4.73;100.00
35226;BME280;21813;49.686;21.766;2022-12-18T00:25:51;99703.09;;;-4.74;100.00
35226;BME280;21813;49.686;21.766;2022-12-18T00:28:17;99699.72;;;-4.73;100.00
35226;BME280;21813;49.686;21.766;2022-12-18T00:30:43;99699.75;;;-4.72;100.00
35226;BME280;21813;49.686;21.766;2022-12-18T00:33:09;99711.59;;;-4.69;100.00
35226;BME280;21813;49.686;21.766;2022-12-18T00:35:37;99714.97;;;-4.70;100.00
35226;BME280;21813;49.686;21.766;2022-12-18T00:38:03;99731.94;;;-4.69;100.00
35226;BME280;21813;49.686;21.766;2022-12-18T00:40:30;99731.94;;;-4.69;100.00
35226;BME280;21813;49.686;21.766;2022-12-18T00:42:57;99716.69;;;-4.69;100.00
35226;BME280;21813;49.686;21.766;2022-12-18T00:45:28;99725.16;;;-4.73;100.00
35226;BME280;21813;49.686;21.766;2022-12-18T00:47:56;99735.34;;;-4.67;100.00
35226;BME280;21813;49.686;21.766;2022-12-18T00:50:23;99734.50;;;-4.72;100.00
35226;BME280;21813;49.686;21.766;2022-12-18T00:52:50;99734.47;;;-4.71;100.00
35226;BME280;21813;49.686;21.766;2022-12-18T00:55:26;99754.00;;;-4.68;100.00
35226;BME280;21813;49.686;21.766;2022-12-18T00:57:54;99748.88;;;-4.71;100.00
35226;BME280;21813;49.686;21.766;2022-12-18T01:00:20;99748.91;;;-4.73;100.00
35226;BME280;21813;49.686;21.766;2022-12-18T01:02:50;99753.97;;;-4.71;100.00
35226;BME280;21813;49.686;21.766;2022-12-18T01:05:25;99751.44;;;-4.73;100.00
35226;BME280;21813;49.686;21.766;2022-12-18T01:07:57;99759.91;;;-4.69;100.00
35226;BME280;21813;49.686;21.766;2022-12-18T01:10:38;99748.91;;;-4.73;100.00
35226;BME280;21813;49.686;21.766;2022-12-18T01:13:35;99753.97;;;-4.71;100.00
35226;BME280;21813;49.686;21.766;2022-12-18T01:16:02;99760.75;;;-4.70;100.00
35226;BME280;21813;49.686;21.766;2022-12-18T01:18:28;99762.47;;;-4.66;100.00
35226;BME280;21813;49.686;21.766;2022-12-18T01:20:56;99765.00;;;-4.69;100.00
35226;BME280;21813;49.686;21.766;2022-12-18T01:23:22;99770.09;;;-4.66;100.00
35226;BME280;21813;49.686;21.766;2022-12-18T01:25:50;99769.25;;;-4.68;100.00
35226;BME280;21813;49.686;21.766;2022-12-18T01:28:16;99764.16;;;-4.68;100.00
35226;BME280;21813;49.686;21.766;2022-12-18T01:30:47;99774.31;;;-4.70;100.00
35226;BME280;21813;49.686;21.766;2022-12-18T01:33:49;99786.22;;;-4.64;100.00
35226;BME280;21813;49.686;21.766;2022-12-18T01:36:17;99784.50;;;-4.65;100.00
35226;BME280;21813;49.686;21.766;2022-12-18T01:38:44;99790.44;;;-4.66;100.00
35226;BME280;21813;49.686;21.766;2022-12-18T01:41:16;99796.38;;;-4.66;100.00
35226;BME280;21813;49.686;21.766;2022-12-18T01:43:55;99804.00;;;-4.66;100.00
35226;BME280;21813;49.686;21.766;2022-12-18T01:46:26;99795.53;;;-4.69;100.00
35226;BME280;21813;49.686;21.766;2022-12-18T01:48:57;99787.03;;;-4.70;100.00
35226;BME280;21813;49.686;21.766;2022-12-18T01:51:30;99793.84;;;-4.69;100.00
35226;BME280;21813;49.686;21.766;2022-12-18T01:53:58;99787.91;;;-4.66;100.00
35226;BME280;21813;49.686;21.766;2022-12-18T01:56:26;99793.00;;;-4.65;100.00
35226;BME280;21813;49.686;21.766;2022-12-18T01:59:00;99790.47;;;-4.68;100.00
35226;BME280;21813;49.686;21.766;2022-12-18T02:01:32;99803.16;;;-4.66;100.00
35226;BME280;21813;49.686;21.766;2022-12-18T02:04:22;99804.88;;;-4.62;100.00
35226;BME280;21813;49.686;21.766;2022-12-18T02:07:23;99798.91;;;-4.69;100.00
35226;BME280;21813;49.686;21.766;2022-12-18T02:10:11;99807.41;;;-4.68;100.00
35226;BME280;21813;49.686;21.766;2022-12-18T02:14:00;99798.91;;;-4.70;100.00
35226;BME280;21813;49.686;21.766;2022-12-18T02:16:21;99813.38;;;-4.63;100.00
35226;BME280;21813;49.686;21.766;2022-12-18T02:19:00;99818.44;;;-4.63;100.00
35226;BME280;21813;49.686;21.766;2022-12-18T02:22:14;99821.81;;;-4.66;100.00
35226;BME280;21813;49.686;21.766;2022-12-18T02:27:49;99821.81;;;-4.67;100.00
35226;BME280;21813;49.686;21.766;2022-12-18T02:30:21;99830.28;;;-4.65;100.00
35226;BME280;21813;49.686;21.766;2022-12-18T02:32:51;99847.25;;;-4.61;100.00
35226;BME280;21813;49.686;21.766;2022-12-18T02:35:28;99832.81;;;-4.70;100.00
35226;BME280;21813;49.686;21.766;2022-12-18T02:38:06;99839.63;;;-4.66;100.00
35226;BME280;21813;49.686;21.766;2022-12-18T02:40:35;99836.22;;;-4.69;100.00
35226;BME280;21813;49.686;21.766;2022-12-18T02:43:13;99843.84;;;-4.72;100.00
35226;BME280;21813;49.686;21.766;2022-12-18T02:45:53;99847.22;;;-4.73;100.00
35226;BME280;21813;49.686;21.766;2022-12-18T02:48:28;99855.72;;;-4.68;100.00
35226;BME280;21813;49.686;21.766;2022-12-18T02:52:24;99858.28;;;-4.68;100.00
35226;BME280;21813;49.686;21.766;2022-12-18T02:54:21;99858.28;;;-4.68;100.00
35226;BME280;21813;49.686;21.766;2022-12-18T02:56:54;99873.53;;;-4.68;100.00
35226;BME280;21813;49.686;21.766;2022-12-18T02:59:39;99872.69;;;-4.67;100.00
35226;BME280;21813;49.686;21.766;2022-12-18T03:02:29;99875.22;;;-4.69;100.00
35226;BME280;21813;49.686;21.766;2022-12-18T03:05:24;99875.22;;;-4.69;100.00
35226;BME280;21813;49.686;21.766;2022-12-18T03:07:57;99877.75;;;-4.73;100.00
35226;BME280;21813;49.686;21.766;2022-12-18T03:10:26;99890.47;;;-4.70;100.00
35226;BME280;21813;49.686;21.766;2022-12-18T03:13:10;99891.31;;;-4.73;100.00
35226;BME280;21813;49.686;21.766;2022-12-18T03:15:44;99881.13;;;-4.74;100.00
35226;BME280;21813;49.686;21.766;2022-12-18T03:18:19;99898.13;;;-4.67;100.00
35226;BME280;21813;49.686;21.766;2022-12-18T03:20:49;99893.00;;;-4.70;100.00
35226;BME280;21813;49.686;21.766;2022-12-18T03:23:21;99896.38;;;-4.71;100.00
35226;BME280;21813;49.686;21.766;2022-12-18T03:25:53;99900.63;;;-4.76;100.00
35226;BME280;21813;49.686;21.766;2022-12-18T03:28:22;99908.25;;;-4.76;100.00
35226;BME280;21813;49.686;21.766;2022-12-18T03:30:55;99915.88;;;-4.75;100.00
35226;BME280;21813;49.686;21.766;2022-12-18T03:33:42;99915.00;;;-4.75;100.00
35226;BME280;21813;49.686;21.766;2022-12-18T03:36:12;99917.53;;;-4.80;100.00
35226;BME280;21813;49.686;21.766;2022-12-18T03:38:37;99922.59;;;-4.80;100.00
35226;BME280;21813;49.686;21.766;2022-12-18T03:41:26;99926.03;;;-4.81;100.00
35226;BME280;21813;49.686;21.766;2022-12-18T03:52:53;99945.44;;;-4.91;100.00
35226;BME280;21813;49.686;21.766;2022-12-18T03:55:25;99947.09;;;-4.93;100.00
35226;BME280;21813;49.686;21.766;2022-12-18T03:58:00;99952.19;;;-4.96;100.00
35226;BME280;21813;49.686;21.766;2022-12-18T04:00:30;99958.91;;;-4.99;100.00
35226;BME280;21813;49.686;21.766;2022-12-18T04:03:29;99957.22;;;-5.02;100.00
35226;BME280;21813;49.686;21.766;2022-12-18T04:07:01;99961.44;;;-4.99;100.00
35226;BME280;21813;49.686;21.766;2022-12-18T04:09:38;99968.25;;;-4.98;100.00
35226;BME280;21813;49.686;21.766;2022-12-18T04:12:24;99966.56;;;-4.98;100.00
35226;BME280;21813;49.686;21.766;2022-12-18T04:14:56;99963.97;;;-5.04;100.00
35226;BME280;21813;49.686;21.766;2022-12-18T04:17:22;99963.97;;;-5.04;100.00
35226;BME280;21813;49.686;21.766;2022-12-18T04:19:49;99963.97;;;-5.04;100.00
35226;BME280;21813;49.686;21.766;2022-12-18T04:22:15;99975.84;;;-5.03;100.00
35226;BME280;21813;49.686;21.766;2022-12-18T04:24:57;99980.91;;;-5.03;100.00
35226;BME280;21813;49.686;21.766;2022-12-18T04:27:45;99997.94;;;-4.96;100.00
35226;BME280;21813;49.686;21.766;2022-12-18T04:30:12;99999.59;;;-4.98;100.00
35226;BME280;21813;49.686;21.766;2022-12-18T04:32:38;99996.22;;;-4.97;100.00
35226;BME280;21813;49.686;21.766;2022-12-18T04:35:05;99997.91;;;-4.97;100.00
35226;BME280;21813;49.686;21.766;2022-12-18T04:37:35;100006.38;;;-5.00;100.00
35226;BME280;21813;49.686;21.766;2022-12-18T04:40:01;100007.22;;;-4.98;100.00
35226;BME280;21813;49.686;21.766;2022-12-18T04:42:27;100013.16;;;-4.99;100.00
35226;BME280;21813;49.686;21.766;2022-12-18T04:44:55;100012.25;;;-5.04;100.00
35226;BME280;21813;49.686;21.766;2022-12-18T04:47:22;100013.94;;;-5.06;100.00
35226;BME280;21813;49.686;21.766;2022-12-18T04:49:48;100024.13;;;-5.04;100.00
35226;BME280;21813;49.686;21.766;2022-12-18T04:52:14;100026.63;;;-5.07;100.00
35226;BME280;21813;49.686;21.766;2022-12-18T04:54:42;100024.13;;;-5.06;100.00
35226;BME280;21813;49.686;21.766;2022-12-18T04:57:08;100036.81;;;-5.06;100.00
35226;BME280;21813;49.686;21.766;2022-12-18T04:59:35;100035.94;;;-5.08;100.00
35226;BME280;21813;49.686;21.766;2022-12-18T05:02:01;100040.16;;;-5.11;100.00
35226;BME280;21813;49.686;21.766;2022-12-18T05:04:29;100037.63;;;-5.10;100.00
35226;BME280;21813;49.686;21.766;2022-12-18T05:06:56;100046.91;;;-5.12;100.00
35226;BME280;21813;49.686;21.766;2022-12-18T05:09:23;100060.47;;;-5.11;100.00
35226;BME280;21813;49.686;21.766;2022-12-18T05:11:48;100059.63;;;-5.12;100.00
35226;BME280;21813;49.686;21.766;2022-12-18T05:14:15;100057.09;;;-5.12;100.00
35226;BME280;21813;49.686;21.766;2022-12-18T05:16:40;100058.78;;;-5.14;100.00
35226;BME280;21813;49.686;21.766;2022-12-18T05:19:07;100072.31;;;-5.15;100.00
35226;BME280;21813;49.686;21.766;2022-12-18T05:21:33;100066.41;;;-5.14;100.00
35226;BME280;21813;49.686;21.766;2022-12-18T05:24:01;100070.59;;;-5.16;100.00
35226;BME280;21813;49.686;21.766;2022-12-18T05:26:26;100072.28;;;-5.18;100.00
35226;BME280;21813;49.686;21.766;2022-12-18T05:28:57;100082.41;;;-5.21;100.00
35226;BME280;21813;49.686;21.766;2022-12-18T05:31:25;100082.38;;;-5.22;100.00
35226;BME280;21813;49.686;21.766;2022-12-18T05:33:53;100089.19;;;-5.23;100.00
35226;BME280;21813;49.686;21.766;2022-12-18T05:36:19;100079.78;;;-5.27;100.00
35226;BME280;21813;49.686;21.766;2022-12-18T05:38:46;100086.63;;;-5.24;100.00
35226;BME280;21813;49.686;21.766;2022-12-18T05:41:11;100082.31;;;-5.30;100.00
35226;BME280;21813;49.686;21.766;2022-12-18T05:43:43;100089.94;;;-5.30;100.00
35226;BME280;21813;49.686;21.766;2022-12-18T05:46:12;100086.50;;;-5.33;100.00
35226;BME280;21813;49.686;21.766;2022-12-18T05:48:42;100093.28;;;-5.34;100.00
35226;BME280;21813;49.686;21.766;2022-12-18T05:51:14;100094.13;;;-5.33;100.00
35226;BME280;21813;49.686;21.766;2022-12-18T05:53:42;100105.16;;;-5.31;100.00
35226;BME280;21813;49.686;21.766;2022-12-18T05:56:11;100104.28;;;-5.33;100.00
35226;BME280;21813;49.686;21.766;2022-12-18T05:58:38;100115.28;;;-5.35;100.00
35226;BME280;21813;49.686;21.766;2022-12-18T06:01:16;100120.34;;;-5.36;100.00
35226;BME280;21813;49.686;21.766;2022-12-18T06:03:44;100122.06;;;-5.35;100.00
35226;BME280;21813;49.686;21.766;2022-12-18T06:06:14;100133.97;;;-5.32;100.00
35226;BME280;21813;49.686;21.766;2022-12-18T06:08:42;100128.03;;;-5.33;100.00
35226;BME280;21813;49.686;21.766;2022-12-18T06:11:07;100132.28;;;-5.32;100.00
35226;BME280;21813;49.686;21.766;2022-12-18T06:13:35;100132.28;;;-5.32;100.00
35226;BME280;21813;49.686;21.766;2022-12-18T06:16:07;100138.22;;;-5.30;100.00
35226;BME280;21813;49.686;21.766;2022-12-18T06:18:39;100142.44;;;-5.30;100.00
35226;BME280;21813;49.686;21.766;2022-12-18T06:21:05;100141.56;;;-5.31;100.00
35226;BME280;21813;49.686;21.766;2022-12-18T06:23:32;100144.13;;;-5.31;100.00
35226;BME280;21813;49.686;21.766;2022-12-18T06:25:58;100148.38;;;-5.30;100.00
35226;BME280;21813;49.686;21.766;2022-12-18T06:28:29;100138.22;;;-5.30;100.00
35226;BME280;21813;49.686;21.766;2022-12-18T06:30:58;100149.25;;;-5.28;100.00
35226;BME280;21813;49.686;21.766;2022-12-18T06:33:28;100152.66;;;-5.27;100.00
35226;BME280;21813;49.686;21.766;2022-12-18T06:35:54;100148.41;;;-5.27;100.00
35226;BME280;21813;49.686;21.766;2022-12-18T06:38:22;100155.19;;;-5.26;100.00
35226;BME280;21813;49.686;21.766;2022-12-18T06:40:47;100165.41;;;-5.21;100.00
35226;BME280;21813;49.686;21.766;2022-12-18T06:43:15;100157.72;;;-5.26;100.00
35226;BME280;21813;49.686;21.766;2022-12-18T06:45:41;100165.41;;;-5.23;100.00
35226;BME280;21813;49.686;21.766;2022-12-18T06:48:08;100164.56;;;-5.22;100.00
35226;BME280;21813;49.686;21.766;2022-12-18T06:50:34;100170.50;;;-5.23;100.00
35226;BME280;21813;49.686;21.766;2022-12-18T06:53:00;100170.50;;;-5.23;100.00
35226;BME280;21813;49.686;21.766;2022-12-18T06:55:26;100174.75;;;-5.20;100.00
35226;BME280;21813;49.686;21.766;2022-12-18T06:57:54;100176.50;;;-5.18;100.00
35226;BME280;21813;49.686;21.766;2022-12-18T07:00:19;100187.50;;;-5.16;100.00
35226;BME280;21813;49.686;21.766;2022-12-18T07:02:47;100183.25;;;-5.17;100.00
35226;BME280;21813;49.686;21.766;2022-12-18T07:05:15;100192.59;;;-5.16;100.00
35226;BME280;21813;49.686;21.766;2022-12-18T07:07:43;100201.09;;;-5.12;100.00
35226;BME280;21813;49.686;21.766;2022-12-18T07:10:09;100211.28;;;-5.11;100.00
35226;BME280;21813;49.686;21.766;2022-12-18T07:12:36;100202.84;;;-5.10;100.00
35226;BME280;21813;49.686;21.766;2022-12-18T07:15:03;100207.94;;;-5.10;100.00
35226;BME280;21813;49.686;21.766;2022-12-18T07:17:38;100209.63;;;-5.09;100.00
35226;BME280;21813;49.686;21.766;2022-12-18T07:20:05;100209.66;;;-5.06;100.00
35226;BME280;21813;49.686;21.766;2022-12-18T07:22:31;100218.16;;;-5.04;100.00
35226;BME280;21813;49.686;21.766;2022-12-18T07:24:57;100223.22;;;-5.04;100.00
35226;BME280;21813;49.686;21.766;2022-12-18T07:27:25;100230.09;;;-5.00;100.00
35226;BME280;21813;49.686;21.766;2022-12-18T07:29:50;100233.44;;;-4.99;100.00
35226;BME280;21813;49.686;21.766;2022-12-18T07:32:17;100226.66;;;-5.02;100.00
35226;BME280;21813;49.686;21.766;2022-12-18T07:34:43;100232.69;;;-4.95;100.00
35226;BME280;21813;49.686;21.766;2022-12-18T07:37:11;100239.47;;;-4.93;100.00
35226;BME280;21813;49.686;21.766;2022-12-18T07:39:36;100239.50;;;-4.91;100.00
35226;BME280;21813;49.686;21.766;2022-12-18T07:42:03;100243.75;;;-4.88;100.00
35226;BME280;21813;49.686;21.766;2022-12-18T07:44:47;100254.81;;;-4.86;100.00
35226;BME280;21813;49.686;21.766;2022-12-18T07:47:14;100255.69;;;-4.84;100.00
35226;BME280;21813;49.686;21.766;2022-12-18T07:49:41;100248.91;;;-4.85;100.00
35226;BME280;21813;49.686;21.766;2022-12-18T07:52:33;100252.31;;;-4.83;100.00
35226;BME280;21813;49.686;21.766;2022-12-18T07:54:59;100263.41;;;-4.77;100.00
35226;BME280;21813;49.686;21.766;2022-12-18T07:57:24;100262.63;;;-4.73;100.00
35226;BME280;21813;49.686;21.766;2022-12-18T07:59:50;100262.59;;;-4.71;100.00
35226;BME280;21813;49.686;21.766;2022-12-18T08:02:16;100268.59;;;-4.68;100.00
35226;BME280;21813;49.686;21.766;2022-12-18T08:04:42;100259.28;;;-4.67;100.00
35226;BME280;21813;49.686;21.766;2022-12-18T08:07:07;100274.59;;;-4.63;100.00
35226;BME280;21813;49.686;21.766;2022-12-18T08:09:33;100264.44;;;-4.61;100.00
35226;BME280;21813;49.686;21.766;2022-12-18T08:11:59;100270.38;;;-4.61;100.00
35226;BME280;21813;49.686;21.766;2022-12-18T08:14:25;100268.72;;;-4.59;100.00
35226;BME280;21813;49.686;21.766;2022-12-18T08:16:51;100280.63;;;-4.55;100.00
35226;BME280;21813;49.686;21.766;2022-12-18T08:19:17;100276.41;;;-4.51;100.00
35226;BME280;21813;49.686;21.766;2022-12-18T08:21:42;100286.63;;;-4.48;100.00
35226;BME280;21813;49.686;21.766;2022-12-18T08:24:09;100284.13;;;-4.45;100.00
35226;BME280;21813;49.686;21.766;2022-12-18T08:26:35;100285.84;;;-4.44;100.00
35226;BME280;21813;49.686;21.766;2022-12-18T08:29:02;100288.41;;;-4.41;100.00
35226;BME280;21813;49.686;21.766;2022-12-18T08:31:29;100290.13;;;-4.40;100.00
35226;BME280;21813;49.686;21.766;2022-12-18T08:33:56;100288.47;;;-4.35;100.00
35226;BME280;21813;49.686;21.766;2022-12-18T08:36:23;100291.88;;;-4.33;100.00
35226;BME280;21813;49.686;21.766;2022-12-18T08:38:50;100296.13;;;-4.32;100.00
35226;BME280;21813;49.686;21.766;2022-12-18T08:41:17;100286.00;;;-4.27;100.00
35226;BME280;21813;49.686;21.766;2022-12-18T08:43:44;100303.84;;;-4.24;100.00
35226;BME280;21813;49.686;21.766;2022-12-18T08:46:40;100298.78;;;-4.23;100.00
35226;BME280;21813;49.686;21.766;2022-12-18T08:49:08;100301.34;;;-4.20;100.00
35226;BME280;21813;49.686;21.766;2022-12-18T08:51:34;100307.31;;;-4.18;100.00
35226;BME280;21813;49.686;21.766;2022-12-18T08:54:03;100306.50;;;-4.14;100.00
35226;BME280;21813;49.686;21.766;2022-12-18T08:56:29;100302.31;;;-4.12;100.00
35226;BME280;21813;49.686;21.766;2022-12-18T08:58:56;100303.16;;;-4.10;100.00
35226;BME280;21813;49.686;21.766;2022-12-18T09:01:23;100309.16;;;-4.05;100.00
35226;BME280;21813;49.686;21.766;2022-12-18T09:03:52;100301.53;;;-4.03;100.00
35226;BME280;21813;49.686;21.766;2022-12-18T09:06:20;100311.75;;;-4.00;100.00
35226;BME280;21813;49.686;21.766;2022-12-18T09:08:48;100302.41;;;-3.99;100.00
35226;BME280;21813;49.686;21.766;2022-12-18T09:11:22;100307.53;;;-3.96;100.00
35226;BME280;21813;49.686;21.766;2022-12-18T09:13:49;100310.09;;;-3.95;100.00
35226;BME280;21813;49.686;21.766;2022-12-18T09:16:16;100313.50;;;-3.93;100.00
35226;BME280;21813;49.686;21.766;2022-12-18T09:18:46;100309.25;;;-3.92;100.00
35226;BME280;21813;49.686;21.766;2022-12-18T09:21:14;100310.97;;;-3.91;100.00
35226;BME280;21813;49.686;21.766;2022-12-18T09:23:40;100322.88;;;-3.90;100.00
35226;BME280;21813;49.686;21.766;2022-12-18T09:26:07;100329.69;;;-3.89;100.00
35226;BME280;21813;49.686;21.766;2022-12-18T09:28:33;100322.88;;;-3.87;100.00
35226;BME280;21813;49.686;21.766;2022-12-18T09:31:04;100328.00;;;-3.86;100.00
35226;BME280;21813;49.686;21.766;2022-12-18T09:33:31;100322.09;;;-3.82;100.00
35226;BME280;21813;49.686;21.766;2022-12-18T09:35:56;100328.06;;;-3.78;100.00
35226;BME280;21813;49.686;21.766;2022-12-18T09:38:22;100319.59;;;-3.77;100.00
35226;BME280;21813;49.686;21.766;2022-12-18T09:40:53;100320.47;;;-3.75;100.00
35226;BME280;21813;49.686;21.766;2022-12-18T09:43:46;100333.22;;;-3.72;100.00
35226;BME280;21813;49.686;21.766;2022-12-18T09:46:18;100328.97;;;-3.73;100.00
35226;BME280;21813;49.686;21.766;2022-12-18T09:48:48;100329.84;;;-3.68;100.00
35226;BME280;21813;49.686;21.766;2022-12-18T09:51:19;100316.28;;;-3.67;100.00
35226;BME280;21813;49.686;21.766;2022-12-18T09:53:53;100315.44;;;-3.68;100.00
35226;BME280;21813;49.686;21.766;2022-12-18T09:56:25;100314.59;;;-3.65;100.00
35226;BME280;21813;49.686;21.766;2022-12-18T09:59:01;100318.88;;;-3.63;100.00
35226;BME280;21813;49.686;21.766;2022-12-18T10:01:28;100324.81;;;-3.62;100.00
35226;BME280;21813;49.686;21.766;2022-12-18T10:03:55;100318.03;;;-3.60;100.00
35226;BME280;21813;49.686;21.766;2022-12-18T10:06:32;100320.56;;;-3.60;100.00
35226;BME280;21813;49.686;21.766;2022-12-18T10:11:43;100324.03;;;-3.57;100.00
35226;BME280;21813;49.686;21.766;2022-12-18T10:25:02;100315.50;;;-3.56;100.00
35226;BME280;21813;49.686;21.766;2022-12-18T10:27:30;100323.16;;;-3.57;100.00
35226;BME280;21813;49.686;21.766;2022-12-18T10:30:14;100322.34;;;-3.56;100.00
35226;BME280;21813;49.686;21.766;2022-12-18T10:32:40;100324.88;;;-3.56;100.00
35226;BME280;21813;49.686;21.766;2022-12-18T10:35:20;100333.38;;;-3.57;100.00
35226;BME280;21813;49.686;21.766;2022-12-18T10:40:27;100326.59;;;-3.52;100.00
35226;BME280;21813;49.686;21.766;2022-12-18T10:43:11;100327.47;;;-3.48;100.00
35226;BME280;21813;49.686;21.766;2022-12-18T10:45:38;100333.44;;;-3.46;100.00
35226;BME280;21813;49.686;21.766;2022-12-18T10:48:04;100331.72;;;-3.46;100.00
35226;BME280;21813;49.686;21.766;2022-12-18T10:50:34;100319.88;;;-3.44;100.00
35226;BME280;21813;49.686;21.766;2022-12-18T10:53:02;100322.41;;;-3.44;100.00
35226;BME280;21813;49.686;21.766;2022-12-18T10:55:37;100326.69;;;-3.40;100.00
35226;BME280;21813;49.686;21.766;2022-12-18T10:58:20;100335.19;;;-3.41;100.00
35226;BME280;21813;49.686;21.766;2022-12-18T11:01:12;100338.56;;;-3.42;100.00
35226;BME280;21813;49.686;21.766;2022-12-18T11:03:46;100333.44;;;-3.45;100.00
35226;BME280;21813;49.686;21.766;2022-12-18T11:06:21;100321.56;;;-3.44;100.00
35226;BME280;21813;49.686;21.766;2022-12-18T11:11:28;100330.06;;;-3.47;100.00
35226;BME280;21813;49.686;21.766;2022-12-18T11:16:27;100336.88;;;-3.43;100.00
35226;BME280;21813;49.686;21.766;2022-12-18T11:21:55;100327.53;;;-3.42;100.00
35226;BME280;21813;49.686;21.766;2022-12-18T11:24:33;100329.22;;;-3.41;100.00
35226;BME280;21813;49.686;21.766;2022-12-18T11:27:04;100330.06;;;-3.41;100.00
35226;BME280;21813;49.686;21.766;2022-12-18T11:29:36;100328.38;;;-3.42;100.00
35226;BME280;21813;49.686;21.766;2022-12-18T11:34:44;100324.94;;;-3.45;100.00
35226;BME280;21813;49.686;21.766;2022-12-18T11:37:12;100316.44;;;-3.46;100.00
35226;BME280;21813;49.686;21.766;2022-12-18T11:39:58;100315.63;;;-3.43;100.00
35226;BME280;21813;49.686;21.766;2022-12-18T11:42:52;100323.28;;;-3.43;100.00
35226;BME280;21813;49.686;21.766;2022-12-18T11:45:30;100323.28;;;-3.43;100.00
35226;BME280;21813;49.686;21.766;2022-12-18T11:48:01;100316.50;;;-3.43;100.00
35226;BME280;21813;49.686;21.766;2022-12-18T11:50:51;100324.97;;;-3.47;100.00
35226;BME280;21813;49.686;21.766;2022-12-18T11:53:18;100333.44;;;-3.48;100.00
35226;BME280;21813;49.686;21.766;2022-12-18T11:55:54;100325.78;;;-3.48;100.00
35226;BME280;21813;49.686;21.766;2022-12-18T12:06:48;100324.06;;;-3.52;100.00
35226;BME280;21813;49.686;21.766;2022-12-18T12:12:11;100337.66;;;-3.50;100.00
35226;BME280;21813;49.686;21.766;2022-12-18T12:22:46;100340.09;;;-3.61;100.00
35226;BME280;21813;49.686;21.766;2022-12-18T12:38:47;100333.09;;;-3.89;100.00
35226;BME280;21813;49.686;21.766;2022-12-18T12:41:21;100345.84;;;-3.83;100.00
35226;BME280;21813;49.686;21.766;2022-12-18T12:44:16;100341.63;;;-3.82;100.00
35226;BME280;21813;49.686;21.766;2022-12-18T12:46:47;100349.31;;;-3.79;100.00
35226;BME280;21813;49.686;21.766;2022-12-18T12:49:15;100362.03;;;-3.79;100.00
35226;BME280;21813;49.686;21.766;2022-12-18T12:51:52;100364.59;;;-3.78;100.00
35226;BME280;21813;49.686;21.766;2022-12-18T12:54:23;100356.94;;;-3.79;100.00
35226;BME280;21813;49.686;21.766;2022-12-18T12:59:57;100355.19;;;-3.85;100.00
35226;BME280;21813;49.686;21.766;2022-12-18T13:05:34;100374.63;;;-3.91;100.00
35226;BME280;21813;49.686;21.766;2022-12-18T13:08:26;100380.56;;;-3.92;100.00
35226;BME280;21813;49.686;21.766;2022-12-18T13:10:58;100376.31;;;-3.92;100.00
35226;BME280;21813;49.686;21.766;2022-12-18T13:13:55;100376.38;;;-3.89;100.00
35226;BME280;21813;49.686;21.766;2022-12-18T13:16:24;100378.91;;;-3.90;100.00
35226;BME280;21813;49.686;21.766;2022-12-18T13:18:54;100380.63;;;-3.89;100.00
35226;BME280;21813;49.686;21.766;2022-12-18T13:23:51;100382.25;;;-3.93;100.00
35226;BME280;21813;49.686;21.766;2022-12-18T13:34:18;100397.56;;;-3.91;100.00
35226;BME280;21813;49.686;21.766;2022-12-18T13:36:45;100412.84;;;-3.91;100.00
35226;BME280;21813;49.686;21.766;2022-12-18T13:41:44;100422.16;;;-3.95;100.00
35226;BME280;21813;49.686;21.766;2022-12-18T13:46:55;100436.47;;;-4.02;100.00
35226;BME280;21813;49.686;21.766;2022-12-18T13:51:55;100447.47;;;-4.06;100.00
35226;BME280;21813;49.686;21.766;2022-12-18T13:54:35;100448.31;;;-4.07;100.00
35226;BME280;21813;49.686;21.766;2022-12-18T13:57:03;100450.00;;;-4.09;100.00
35226;BME280;21813;49.686;21.766;2022-12-18T13:59:39;100456.75;;;-4.11;100.00
35226;BME280;21813;49.686;21.766;2022-12-18T14:11:37;100487.94;;;-4.25;100.00
35226;BME280;21813;49.686;21.766;2022-12-18T14:14:03;100497.22;;;-4.29;100.00
35226;BME280;21813;49.686;21.766;2022-12-18T14:16:40;100501.50;;;-4.28;100.00
35226;BME280;21813;49.686;21.766;2022-12-18T14:19:12;100510.81;;;-4.28;100.00
35226;BME280;21813;49.686;21.766;2022-12-18T14:21:39;100504.88;;;-4.30;100.00
35226;BME280;21813;49.686;21.766;2022-12-18T14:24:16;100509.09;;;-4.31;100.00
35226;BME280;21813;49.686;21.766;2022-12-18T14:26:43;100504.72;;;-4.41;99.71
35226;BME280;21813;49.686;21.766;2022-12-18T14:29:27;100509.69;;;-4.47;100.00
35226;BME280;21813;49.686;21.766;2022-12-18T14:32:13;100505.41;;;-4.51;99.94
35226;BME280;21813;49.686;21.766;2022-12-18T14:34:41;100502.75;;;-4.57;100.00
35226;BME280;21813;49.686;21.766;2022-12-18T14:37:10;100496.78;;;-4.61;100.00
35226;BME280;21813;49.686;21.766;2022-12-18T14:39:37;100492.44;;;-4.66;100.00
35226;BME280;21813;49.686;21.766;2022-12-18T14:42:03;100498.38;;;-4.67;100.00